createdAt,value
2022-09-16T00:00:30.773Z,23.77
2022-09-16T00:02:30.700Z,23.73
2022-09-16T00:04:30.772Z,23.76
2022-09-16T00:06:30.755Z,23.81
2022-09-16T00:08:30.620Z,23.81
2022-09-16T00:10:30.714Z,23.77
2022-09-16T00:12:30.825Z,23.81
2022-09-16T00:14:30.808Z,23.73
2022-09-16T00:16:30.863Z,23.79
2022-09-16T00:18:30.776Z,23.70
2022-09-16T00:20:30.785Z,23.72
2022-09-16T00:22:30.772Z,23.73
2022-09-16T00:24:30.746Z,23.73
2022-09-16T00:26:30.770Z,23.70
2022-09-16T00:28:30.808Z,23.68
2022-09-16T00:30:30.832Z,23.68
2022-09-16T00:32:30.808Z,23.70
2022-09-16T00:34:30.880Z,23.69
2022-09-16T00:36:30.795Z,23.73
2022-09-16T00:38:30.706Z,23.67
2022-09-16T00:40:30.837Z,23.73
2022-09-16T00:42:30.829Z,23.68
2022-09-16T00:44:30.832Z,23.66
2022-09-16T00:46:30.862Z,23.70
2022-09-16T00:48:30.727Z,23.65
2022-09-16T00:50:30.838Z,23.73
2022-09-16T00:52:30.839Z,23.72
2022-09-16T00:54:30.834Z,23.68
2022-09-16T00:56:30.875Z,23.70
2022-09-16T00:58:30.738Z,23.70
2022-09-16T01:00:30.768Z,23.72
2022-09-16T01:02:30.799Z,23.65
2022-09-16T01:04:30.687Z,23.65
2022-09-16T01:06:30.912Z,23.65
2022-09-16T01:08:30.829Z,23.59
2022-09-16T01:10:30.825Z,23.61
2022-09-16T01:12:30.713Z,23.59
2022-09-16T01:14:30.889Z,23.65
2022-09-16T01:16:30.927Z,23.58
2022-09-16T01:18:30.869Z,23.62
2022-09-16T01:20:30.841Z,23.63
2022-09-16T01:22:30.895Z,23.58
2022-09-16T01:24:30.859Z,23.54
2022-09-16T01:26:30.752Z,23.61
2022-09-16T01:28:30.883Z,23.58
2022-09-16T01:30:30.903Z,23.62
2022-09-16T01:32:30.719Z,23.56
2022-09-16T01:34:30.894Z,23.54
2022-09-16T01:36:30.887Z,23.63
2022-09-16T01:38:30.920Z,23.55
2022-09-16T01:40:30.946Z,23.65
2022-09-16T01:42:30.752Z,23.56
2022-09-16T01:44:30.802Z,23.53
2022-09-16T01:46:30.982Z,23.54
2022-09-16T01:48:30.902Z,23.62
2022-09-16T01:50:30.909Z,23.65
2022-09-16T01:52:30.931Z,23.54
2022-09-16T01:54:30.927Z,23.57
2022-09-16T01:56:30.748Z,23.52
2022-09-16T01:58:30.823Z,23.53
2022-09-16T02:00:30.771Z,23.55
2022-09-16T02:02:30.909Z,23.52
2022-09-16T02:04:30.882Z,23.59
2022-09-16T02:06:30.942Z,23.55
2022-09-16T02:08:30.881Z,23.53
2022-09-16T02:10:30.951Z,23.53
2022-09-16T02:12:30.859Z,23.56
2022-09-16T02:14:30.900Z,23.52
2022-09-16T02:16:30.906Z,23.53
2022-09-16T02:18:30.942Z,23.54
2022-09-16T02:20:30.825Z,23.50
2022-09-16T02:22:30.846Z,23.51
2022-09-16T02:24:30.941Z,23.52
2022-09-16T02:26:30.848Z,23.55
2022-09-16T02:28:30.918Z,23.49
2022-09-16T02:30:30.948Z,23.45
2022-09-16T02:32:30.864Z,23.48
2022-09-16T02:34:30.885Z,23.50
2022-09-16T02:36:30.967Z,23.51
2022-09-16T02:38:30.938Z,23.44
2022-09-16T02:40:31.027Z,23.47
2022-09-16T02:42:30.930Z,23.52
2022-09-16T02:44:30.799Z,23.45
2022-09-16T02:46:30.923Z,23.51
2022-09-16T02:48:30.938Z,23.49
2022-09-16T02:50:30.817Z,23.47
2022-09-16T02:52:30.774Z,23.47
2022-09-16T02:54:30.922Z,23.49
2022-09-16T02:56:30.868Z,23.44
2022-09-16T02:58:31.001Z,23.43
2022-09-16T03:00:30.866Z,23.43
2022-09-16T03:02:31.074Z,23.45
2022-09-16T03:04:30.883Z,23.45
2022-09-16T03:06:30.978Z,23.43
2022-09-16T03:08:31.040Z,23.49
2022-09-16T03:10:30.971Z,23.41
2022-09-16T03:12:31.003Z,23.42
2022-09-16T03:14:30.987Z,23.40
2022-09-16T03:16:30.901Z,23.42
2022-09-16T03:18:30.996Z,23.44
2022-09-16T03:20:30.896Z,23.43
2022-09-16T03:22:30.923Z,23.40
2022-09-16T03:24:30.997Z,23.38
2022-09-16T03:26:31.029Z,23.42
2022-09-16T03:28:31.022Z,23.39
2022-09-16T03:30:31.026Z,23.41
2022-09-16T03:32:30.975Z,23.45
2022-09-16T03:34:30.938Z,23.34
2022-09-16T03:36:31.009Z,23.37
2022-09-16T03:38:31.005Z,23.37
2022-09-16T03:40:31.009Z,23.44
2022-09-16T03:42:31.028Z,23.38
2022-09-16T03:44:30.950Z,23.36
2022-09-16T03:46:31.032Z,23.41
2022-09-16T03:48:31.039Z,23.30
2022-09-16T03:50:30.943Z,23.42
2022-09-16T03:52:31.049Z,23.34
2022-09-16T03:54:31.100Z,23.35
2022-09-16T03:56:31.042Z,23.27
2022-09-16T03:58:30.920Z,23.34
2022-09-16T04:00:31.090Z,23.10
2022-09-16T04:02:31.104Z,23.08
2022-09-16T04:04:31.143Z,22.98
2022-09-16T04:06:31.058Z,23.11
2022-09-16T04:08:31.049Z,23.15
2022-09-16T04:10:30.952Z,23.01
2022-09-16T04:12:31.012Z,23.09
2022-09-16T04:14:31.044Z,23.05
2022-09-16T04:16:31.063Z,23.02
2022-09-16T04:18:31.056Z,22.96
2022-09-16T04:20:31.065Z,22.95
2022-09-16T04:22:31.081Z,22.96
2022-09-16T04:24:30.983Z,22.97
2022-09-16T04:26:31.073Z,23.03
2022-09-16T04:28:31.114Z,22.98
2022-09-16T04:30:31.079Z,23.24
2022-09-16T04:32:31.065Z,23.24
2022-09-16T04:34:31.100Z,23.27
2022-09-16T04:36:31.102Z,23.24
2022-09-16T04:38:31.083Z,23.24
2022-09-16T04:40:31.068Z,23.25
2022-09-16T04:42:31.103Z,23.26
2022-09-16T04:44:30.954Z,23.25
2022-09-16T04:46:31.246Z,23.17
2022-09-16T04:48:31.114Z,23.22
2022-09-16T04:50:31.025Z,23.25
2022-09-16T04:52:31.138Z,23.10
2022-09-16T04:54:31.103Z,23.06
2022-09-16T04:56:31.013Z,23.06
2022-09-16T04:58:31.118Z,23.20
2022-09-16T05:00:31.146Z,23.26
2022-09-16T05:02:31.166Z,23.22
2022-09-16T05:04:31.044Z,23.20
2022-09-16T05:06:31.150Z,23.22
2022-09-16T05:08:31.112Z,23.23
2022-09-16T05:10:31.139Z,23.26
2022-09-16T05:12:31.126Z,23.30
2022-09-16T05:14:31.021Z,23.24
2022-09-16T05:16:31.239Z,23.25
2022-09-16T05:18:31.188Z,23.12
2022-09-16T05:20:31.146Z,23.24
2022-09-16T05:22:31.149Z,23.20
2022-09-16T05:24:31.173Z,23.23
2022-09-16T05:26:31.208Z,23.24
2022-09-16T05:28:31.123Z,23.29
2022-09-16T05:30:31.250Z,23.24
2022-09-16T05:32:31.032Z,23.23
2022-09-16T05:34:31.062Z,23.27
2022-09-16T05:36:31.167Z,23.31
2022-09-16T05:38:31.064Z,23.27
2022-09-16T05:40:31.163Z,23.19
2022-09-16T05:42:31.159Z,23.25
2022-09-16T05:44:31.153Z,23.22
2022-09-16T05:46:31.184Z,23.20
2022-09-16T05:48:31.114Z,23.15
2022-09-16T05:50:31.169Z,23.18
2022-09-16T05:52:31.015Z,23.24
2022-09-16T05:54:31.189Z,23.22
2022-09-16T05:56:31.176Z,23.20
2022-09-16T05:58:31.189Z,23.25
2022-09-16T06:00:31.087Z,23.25
2022-09-16T06:02:31.235Z,23.26
2022-09-16T06:04:31.093Z,23.25
2022-09-16T06:06:31.191Z,23.25
2022-09-16T06:08:31.170Z,23.24
2022-09-16T06:10:31.183Z,23.25
2022-09-16T06:12:31.208Z,23.25
2022-09-16T06:14:31.177Z,23.25
2022-09-16T06:16:31.221Z,23.23
2022-09-16T06:18:31.191Z,23.25
2022-09-16T06:20:31.198Z,23.25
2022-09-16T06:22:31.122Z,23.29
2022-09-16T06:24:31.186Z,23.26
2022-09-16T06:26:31.162Z,23.29
2022-09-16T06:28:31.227Z,23.27
2022-09-16T06:30:31.295Z,23.30
2022-09-16T06:32:31.142Z,23.34
2022-09-16T06:34:31.233Z,23.38
2022-09-16T06:36:31.230Z,23.39
2022-09-16T06:38:31.116Z,23.38
2022-09-16T06:40:31.262Z,23.37
2022-09-16T06:42:31.208Z,23.42
2022-09-16T06:44:31.246Z,23.49
2022-09-16T06:46:31.163Z,23.47
2022-09-16T06:48:31.104Z,23.45
2022-09-16T06:50:31.148Z,23.45
2022-09-16T06:52:31.244Z,23.43
2022-09-16T06:54:31.074Z,23.50
2022-09-16T06:56:31.105Z,23.53
2022-09-16T06:58:31.205Z,23.49
2022-09-16T07:00:31.247Z,23.42
2022-09-16T07:02:31.303Z,23.59
2022-09-16T07:04:31.180Z,23.65
2022-09-16T07:06:57.348Z,23.73
2022-09-16T07:08:31.174Z,23.72
2022-09-16T07:10:31.270Z,23.82
2022-09-16T07:12:31.255Z,23.95
2022-09-16T07:14:31.289Z,23.90
2022-09-16T07:16:31.217Z,23.93
2022-09-16T07:18:31.275Z,23.96
2022-09-16T07:20:31.247Z,23.98
2022-09-16T07:22:31.116Z,24.02
2022-09-16T07:24:31.183Z,24.07
2022-09-16T07:26:31.294Z,24.18
2022-09-16T07:28:31.287Z,24.25
2022-09-16T07:30:31.240Z,24.30
2022-09-16T07:32:31.200Z,24.33
2022-09-16T07:34:31.288Z,24.37
2022-09-16T07:36:31.206Z,24.34
2022-09-16T07:38:31.294Z,24.30
2022-09-16T07:40:31.355Z,24.38
2022-09-16T07:42:31.301Z,24.34
2022-09-16T07:44:31.176Z,24.34
2022-09-16T07:46:31.295Z,24.20
2022-09-16T07:48:34.581Z,24.30
2022-09-16T07:50:31.187Z,24.23
2022-09-16T07:52:31.331Z,24.23
2022-09-16T07:54:31.302Z,24.23
2022-09-16T07:56:31.231Z,24.32
2022-09-16T07:58:31.311Z,24.20
2022-09-16T08:00:31.295Z,24.16
2022-09-16T08:02:31.376Z,24.20
2022-09-16T08:04:31.284Z,24.16
2022-09-16T08:06:31.395Z,24.14
2022-09-16T08:08:31.224Z,24.12
2022-09-16T08:10:32.515Z,24.11
2022-09-16T08:12:31.343Z,24.16
2022-09-16T08:14:31.328Z,24.24
2022-09-16T08:16:31.385Z,24.20
2022-09-16T08:18:31.309Z,24.23
2022-09-16T08:20:31.310Z,24.21
2022-09-16T08:22:31.309Z,24.12
2022-09-16T08:24:31.331Z,24.22
2022-09-16T08:26:31.342Z,24.14
2022-09-16T08:28:40.021Z,24.12
2022-09-16T08:30:31.206Z,24.10
2022-09-16T08:32:31.406Z,24.02
2022-09-16T08:34:31.247Z,24.07
2022-09-16T08:36:31.384Z,24.02
2022-09-16T08:38:31.414Z,24.00
2022-09-16T08:40:31.374Z,23.96
2022-09-16T08:42:31.275Z,23.94
2022-09-16T08:44:31.354Z,23.81
2022-09-16T08:46:31.335Z,23.82
2022-09-16T08:48:31.359Z,23.77
2022-09-16T08:50:31.368Z,23.81
2022-09-16T08:52:31.383Z,23.88
2022-09-16T08:54:31.298Z,23.96
2022-09-16T08:56:31.429Z,24.09
2022-09-16T08:58:31.376Z,24.09
2022-09-16T09:00:31.392Z,24.10
2022-09-16T09:02:31.781Z,24.12
2022-09-16T09:04:31.247Z,24.04
2022-09-16T09:06:31.396Z,24.04
2022-09-16T09:08:31.390Z,24.04
2022-09-16T09:10:31.300Z,24.00
2022-09-16T09:12:32.277Z,24.04
2022-09-16T09:14:31.398Z,23.93
2022-09-16T09:16:31.475Z,23.90
2022-09-16T09:18:31.400Z,23.89
2022-09-16T09:20:31.284Z,23.91
2022-09-16T09:22:31.401Z,23.96
2022-09-16T09:24:31.412Z,24.04
2022-09-16T09:26:31.410Z,24.18
2022-09-16T09:28:31.406Z,24.26
2022-09-16T09:30:31.393Z,24.42
2022-09-16T09:32:46.025Z,24.48
2022-09-16T09:34:31.265Z,24.41
2022-09-16T09:36:31.316Z,24.38
2022-09-16T09:38:31.416Z,24.54
2022-09-16T09:40:31.456Z,24.57
2022-09-16T09:42:31.450Z,24.74
2022-09-16T09:44:31.430Z,24.76
2022-09-16T09:46:31.392Z,24.80
2022-09-16T09:48:31.432Z,24.89
2022-09-16T09:50:31.435Z,24.90
2022-09-16T09:52:31.449Z,24.89
2022-09-16T09:54:31.316Z,24.93
2022-09-16T09:56:31.294Z,24.91
2022-09-16T09:58:31.349Z,24.92
2022-09-16T10:00:31.458Z,24.96
2022-09-16T10:02:31.446Z,24.95
2022-09-16T10:04:31.600Z,24.94
2022-09-16T10:06:31.364Z,24.95
2022-09-16T10:08:31.530Z,24.96
2022-09-16T10:10:31.454Z,25.01
2022-09-16T10:12:31.488Z,25.01
2022-09-16T10:14:31.559Z,25.09
2022-09-16T10:16:31.522Z,25.21
2022-09-16T10:18:31.412Z,25.23
2022-09-16T10:20:31.468Z,25.22
2022-09-16T10:22:31.427Z,25.23
2022-09-16T10:24:31.632Z,25.23
2022-09-16T10:26:31.447Z,25.23
2022-09-16T10:28:31.391Z,25.21
2022-09-16T10:30:31.443Z,25.26
2022-09-16T10:32:31.474Z,25.34
2022-09-16T10:34:31.487Z,25.12
2022-09-16T10:36:31.604Z,24.85
2022-09-16T10:38:31.503Z,25.03
2022-09-16T10:40:31.513Z,25.20
2022-09-16T10:42:31.510Z,26.89
2022-09-16T10:44:31.565Z,25.78
2022-09-16T10:46:31.484Z,25.83
2022-09-16T10:48:31.478Z,27.49
2022-09-16T10:50:31.560Z,25.80
2022-09-16T10:52:31.587Z,27.62
2022-09-16T10:54:31.362Z,27.60
2022-09-16T10:56:31.587Z,27.26
2022-09-16T10:58:31.501Z,27.60
2022-09-16T11:00:31.510Z,25.84
2022-09-16T11:02:31.519Z,26.93
2022-09-16T11:04:31.528Z,27.62
2022-09-16T11:06:31.515Z,25.74
2022-09-16T11:08:31.533Z,26.08
2022-09-16T11:10:31.481Z,26.08
2022-09-16T11:12:31.550Z,25.81
2022-09-16T11:14:31.550Z,25.78
2022-09-16T11:16:31.665Z,25.96
2022-09-16T11:18:31.536Z,25.88
2022-09-16T11:20:31.528Z,25.75
2022-09-16T11:22:31.415Z,25.57
2022-09-16T11:24:31.470Z,25.83
2022-09-16T11:26:31.534Z,25.84
2022-09-16T11:28:31.523Z,25.61
2022-09-16T11:30:31.539Z,25.54
2022-09-16T11:32:31.610Z,25.65
2022-09-16T11:34:31.533Z,25.65
2022-09-16T11:36:31.587Z,25.84
2022-09-16T11:38:31.607Z,25.80
2022-09-16T11:40:31.626Z,25.61
2022-09-16T11:42:31.540Z,25.90
2022-09-16T11:44:31.648Z,26.02
2022-09-16T11:46:31.702Z,26.22
2022-09-16T11:48:31.490Z,27.55
2022-09-16T11:50:31.590Z,27.81
2022-09-16T11:52:32.035Z,27.10
2022-09-16T11:54:31.669Z,26.41
2022-09-16T11:56:31.551Z,26.27
2022-09-16T11:58:31.558Z,25.83
2022-09-16T12:00:31.517Z,25.60
2022-09-16T12:02:31.643Z,25.42
2022-09-16T12:04:33.760Z,25.28
2022-09-16T12:06:31.617Z,25.24
2022-09-16T12:08:31.498Z,25.31
2022-09-16T12:10:31.584Z,25.46
2022-09-16T12:12:31.614Z,25.55
2022-09-16T12:14:31.488Z,26.27
2022-09-16T12:16:32.586Z,26.62
2022-09-16T12:18:31.436Z,26.61
2022-09-16T12:20:31.584Z,26.54
2022-09-16T12:22:31.638Z,25.74
2022-09-16T12:24:31.680Z,27.93
2022-09-16T12:26:31.638Z,25.72
2022-09-16T12:28:31.609Z,25.83
2022-09-16T12:30:31.672Z,25.82
2022-09-16T12:32:31.621Z,27.70
2022-09-16T12:34:31.564Z,27.78
2022-09-16T12:36:31.606Z,27.71
2022-09-16T12:38:31.616Z,25.90
2022-09-16T12:40:31.602Z,25.76
2022-09-16T12:42:31.552Z,25.93
2022-09-16T12:44:34.390Z,25.80
2022-09-16T12:46:31.709Z,25.65
2022-09-16T12:48:31.544Z,25.65
2022-09-16T12:50:31.686Z,25.79
2022-09-16T12:52:31.630Z,28.01
2022-09-16T12:54:37.457Z,26.08
2022-09-16T12:56:31.619Z,25.99
2022-09-16T12:58:31.647Z,25.91
2022-09-16T13:00:31.652Z,25.85
2022-09-16T13:02:31.822Z,25.83
2022-09-16T13:04:31.496Z,25.33
2022-09-16T13:06:31.497Z,25.14
2022-09-16T13:08:31.654Z,24.98
2022-09-16T13:10:54.011Z,25.05
2022-09-16T13:12:41.014Z,25.08
2022-09-16T13:14:31.670Z,25.06
2022-09-16T13:16:31.700Z,25.08
2022-09-16T13:18:31.606Z,25.06
2022-09-16T13:20:31.672Z,25.18
2022-09-16T13:22:31.681Z,25.23
2022-09-16T13:24:31.712Z,25.12
2022-09-16T13:26:31.692Z,25.19
2022-09-16T13:28:31.456Z,25.32
2022-09-16T13:30:31.680Z,26.08
2022-09-16T13:32:31.699Z,26.20
2022-09-16T13:34:31.848Z,26.09
2022-09-16T13:36:31.665Z,25.85
2022-09-16T13:38:31.698Z,25.93
2022-09-16T13:40:31.657Z,26.08
2022-09-16T13:42:31.671Z,26.22
2022-09-16T13:44:31.616Z,26.18
2022-09-16T13:46:31.791Z,26.22
2022-09-16T13:48:31.721Z,26.22
2022-09-16T13:50:31.620Z,26.11
2022-09-16T13:52:31.663Z,26.22
2022-09-16T13:54:31.613Z,26.14
2022-09-16T13:56:31.618Z,26.22
2022-09-16T13:58:31.705Z,25.90
2022-09-16T14:00:34.021Z,25.94
2022-09-16T14:02:31.809Z,26.14
2022-09-16T14:04:31.702Z,26.19
2022-09-16T14:06:31.732Z,25.99
2022-09-16T14:08:31.724Z,26.29
2022-09-16T14:10:31.676Z,27.81
2022-09-16T14:12:31.743Z,26.14
2022-09-16T14:14:46.757Z,26.00
2022-09-16T14:16:31.742Z,25.97
2022-09-16T14:18:31.642Z,25.94
2022-09-16T14:20:31.739Z,25.99
2022-09-16T14:22:31.632Z,26.00
2022-09-16T14:24:31.730Z,26.07
2022-09-16T14:26:31.723Z,26.06
2022-09-16T14:28:33.002Z,27.68
2022-09-16T14:30:31.752Z,26.95
2022-09-16T14:32:31.751Z,26.15
2022-09-16T14:34:31.751Z,26.07
2022-09-16T14:36:31.724Z,26.06
2022-09-16T14:38:44.928Z,26.09
2022-09-16T14:40:31.985Z,26.11
2022-09-16T14:42:31.802Z,27.77
2022-09-16T14:44:31.676Z,24.86
2022-09-16T14:46:31.783Z,25.06
2022-09-16T14:48:31.661Z,24.67
2022-09-16T14:50:31.817Z,24.66
2022-09-16T14:52:31.596Z,25.22
2022-09-16T14:54:31.730Z,26.22
2022-09-16T14:56:31.768Z,26.85
2022-09-16T14:58:31.834Z,26.41
2022-09-16T15:00:31.770Z,26.14
2022-09-16T15:02:31.808Z,25.99
2022-09-16T15:04:31.801Z,25.91
2022-09-16T15:06:31.787Z,25.60
2022-09-16T15:08:31.710Z,25.26
2022-09-16T15:10:50.073Z,25.14
2022-09-16T15:12:31.795Z,24.98
2022-09-16T15:14:31.788Z,24.98
2022-09-16T15:16:31.776Z,24.90
2022-09-16T15:18:31.806Z,24.94
2022-09-16T15:20:31.793Z,24.90
2022-09-16T15:22:31.796Z,24.83
2022-09-16T15:24:31.675Z,24.95
2022-09-16T15:26:31.831Z,24.96
2022-09-16T15:28:31.754Z,24.97
2022-09-16T15:30:31.827Z,24.80
2022-09-16T15:32:32.039Z,24.83
2022-09-16T15:34:31.807Z,24.75
2022-09-16T15:36:31.825Z,24.87
2022-09-16T15:38:31.765Z,24.77
2022-09-16T15:40:31.812Z,24.78
2022-09-16T15:42:31.733Z,24.85
2022-09-16T15:44:36.444Z,24.95
2022-09-16T15:46:31.843Z,25.08
2022-09-16T15:48:31.708Z,25.10
2022-09-16T15:50:31.824Z,25.08
2022-09-16T15:52:31.821Z,25.12
2022-09-16T15:54:31.920Z,25.23
2022-09-16T15:56:31.850Z,25.22
2022-09-16T15:58:31.889Z,25.23
2022-09-16T16:00:31.815Z,25.44
2022-09-16T16:02:31.932Z,26.04
2022-09-16T16:04:31.867Z,26.09
2022-09-16T16:06:31.918Z,26.09
2022-09-16T16:08:31.756Z,26.35
2022-09-16T16:10:31.868Z,26.14
2022-09-16T16:12:31.754Z,25.51
2022-09-16T16:14:31.895Z,25.19
2022-09-16T16:16:31.926Z,25.06
2022-09-16T16:18:31.869Z,24.98
2022-09-16T16:20:31.763Z,24.95
2022-09-16T16:22:32.063Z,24.83
2022-09-16T16:24:31.883Z,24.82
2022-09-16T16:26:31.945Z,24.90
2022-09-16T16:28:31.867Z,24.73
2022-09-16T16:30:31.942Z,24.74
2022-09-16T16:32:31.869Z,24.76
2022-09-16T16:34:31.887Z,24.71
2022-09-16T16:36:31.902Z,24.66
2022-09-16T16:38:31.891Z,24.61
2022-09-16T16:40:31.973Z,24.60
2022-09-16T16:42:31.917Z,24.58
2022-09-16T16:44:31.918Z,24.52
2022-09-16T16:46:31.953Z,24.56
2022-09-16T16:48:31.858Z,24.52
2022-09-16T16:50:31.928Z,24.61
2022-09-16T16:52:31.934Z,24.54
2022-09-16T16:54:31.941Z,24.53
2022-09-16T16:56:31.770Z,24.52
2022-09-16T16:58:31.934Z,24.52
2022-09-16T17:00:31.923Z,24.51
2022-09-16T17:02:31.867Z,24.51
2022-09-16T17:04:31.855Z,24.52
2022-09-16T17:06:31.848Z,24.52
2022-09-16T17:08:31.939Z,24.57
2022-09-16T17:10:31.988Z,24.50
2022-09-16T17:12:31.859Z,24.51
2022-09-16T17:14:31.956Z,24.45
2022-09-16T17:16:31.927Z,24.43
2022-09-16T17:18:31.940Z,24.43
2022-09-16T17:20:31.975Z,24.43
2022-09-16T17:22:31.942Z,24.38
2022-09-16T17:24:31.930Z,24.47
2022-09-16T17:26:31.973Z,24.36
2022-09-16T17:28:32.788Z,24.38
2022-09-16T17:30:33.064Z,24.41
2022-09-16T17:32:31.778Z,24.38
2022-09-16T17:34:32.034Z,24.42
2022-09-16T17:36:32.150Z,24.34
2022-09-16T17:38:31.902Z,24.39
2022-09-16T17:40:32.028Z,24.43
2022-09-16T17:42:31.982Z,24.40
2022-09-16T17:44:31.926Z,24.35
2022-09-16T17:46:31.997Z,24.43
2022-09-16T17:48:31.995Z,24.35
2022-09-16T17:50:31.913Z,24.41
2022-09-16T17:52:32.034Z,24.27
2022-09-16T17:54:31.983Z,24.37
2022-09-16T17:56:31.902Z,24.36
2022-09-16T17:58:31.824Z,24.34
2022-09-16T18:00:32.033Z,24.27
2022-09-16T18:02:32.003Z,24.37
2022-09-16T18:04:31.892Z,24.34
2022-09-16T18:06:32.004Z,24.34
2022-09-16T18:08:32.090Z,24.38
2022-09-16T18:10:31.997Z,24.34
2022-09-16T18:12:31.999Z,24.26
2022-09-16T18:14:32.027Z,24.28
2022-09-16T18:16:32.061Z,24.33
2022-09-16T18:18:31.924Z,24.37
2022-09-16T18:20:32.070Z,24.29
2022-09-16T18:22:32.005Z,24.27
2022-09-16T18:24:31.968Z,24.25
2022-09-16T18:26:32.025Z,24.25
2022-09-16T18:28:38.722Z,24.33
2022-09-16T18:30:32.014Z,24.29
2022-09-16T18:32:32.064Z,24.27
2022-09-16T18:34:33.606Z,24.30
2022-09-16T18:36:31.994Z,24.32
2022-09-16T18:38:31.985Z,24.24
2022-09-16T18:40:36.227Z,24.27
2022-09-16T18:42:32.021Z,24.27
2022-09-16T18:44:32.023Z,24.32
2022-09-16T18:46:32.233Z,24.27
2022-09-16T18:48:32.206Z,24.25
2022-09-16T18:50:32.015Z,24.28
2022-09-16T18:52:32.070Z,24.18
2022-09-16T18:54:32.093Z,24.27
2022-09-16T18:56:32.043Z,24.22
2022-09-16T18:58:32.049Z,24.20
2022-09-16T19:00:31.946Z,24.11
2022-09-16T19:02:32.085Z,24.20
2022-09-16T19:04:32.056Z,24.19
2022-09-16T19:06:32.055Z,24.20
2022-09-16T19:08:32.100Z,24.10
2022-09-16T19:10:32.082Z,24.16
2022-09-16T19:12:35.933Z,24.24
2022-09-16T19:14:32.099Z,24.21
2022-09-16T19:16:31.974Z,24.15
2022-09-16T19:18:31.969Z,24.13
2022-09-16T19:20:32.081Z,24.12
2022-09-16T19:22:31.996Z,24.12
2022-09-16T19:24:32.093Z,24.10
2022-09-16T19:26:32.076Z,24.23
2022-09-16T19:28:31.969Z,24.14
2022-09-16T19:30:32.086Z,24.16
2022-09-16T19:32:31.993Z,24.14
2022-09-16T19:34:32.104Z,24.11
2022-09-16T19:36:32.093Z,24.15
2022-09-16T19:38:32.101Z,24.12
2022-09-16T19:40:32.088Z,24.07
2022-09-16T19:42:32.084Z,24.10
2022-09-16T19:44:31.990Z,24.14
2022-09-16T19:46:32.034Z,24.10
2022-09-16T19:48:32.090Z,24.14
2022-09-16T19:50:32.352Z,24.11
2022-09-16T19:52:32.107Z,24.12
2022-09-16T19:54:32.023Z,24.10
2022-09-16T19:56:32.204Z,24.08
2022-09-16T19:58:32.128Z,24.10
2022-09-16T20:00:46.881Z,24.10
2022-09-16T20:02:32.155Z,24.10
2022-09-16T20:04:32.111Z,24.12
2022-09-16T20:06:32.126Z,24.12
2022-09-16T20:08:32.164Z,24.10
2022-09-16T20:10:32.132Z,24.10
2022-09-16T20:12:32.085Z,24.10
2022-09-16T20:14:32.097Z,24.09
2022-09-16T20:16:32.041Z,24.10
2022-09-16T20:18:32.048Z,24.10
2022-09-16T20:20:32.138Z,24.09
2022-09-16T20:22:32.132Z,24.10
2022-09-16T20:24:32.188Z,24.10
2022-09-16T20:26:32.010Z,24.01
2022-09-16T20:28:32.063Z,24.09
2022-09-16T20:30:32.244Z,24.07
2022-09-16T20:32:32.138Z,24.09
2022-09-16T20:34:32.160Z,24.04
2022-09-16T20:36:32.191Z,24.02
2022-09-16T20:38:32.147Z,24.04
2022-09-16T20:40:32.178Z,23.98
2022-09-16T20:42:32.013Z,24.00
2022-09-16T20:44:32.128Z,23.98
2022-09-16T20:46:32.009Z,23.96
2022-09-16T20:48:32.165Z,24.02
2022-09-16T20:50:32.030Z,24.08
2022-09-16T20:52:32.009Z,23.86
2022-09-16T20:54:32.191Z,24.00
2022-09-16T20:56:37.706Z,24.01
2022-09-16T20:58:32.229Z,23.99
2022-09-16T21:00:32.200Z,23.96
2022-09-16T21:02:32.221Z,23.96
2022-09-16T21:04:32.283Z,23.94
2022-09-16T21:06:32.106Z,23.97
2022-09-16T21:08:34.114Z,23.96
2022-09-16T21:10:33.164Z,23.97
2022-09-16T21:12:32.124Z,23.98
2022-09-16T21:14:32.240Z,24.01
2022-09-16T21:16:32.216Z,23.96
2022-09-16T21:18:32.273Z,23.97
2022-09-16T21:20:32.211Z,23.91
2022-09-16T21:22:32.181Z,23.96
2022-09-16T21:24:32.234Z,24.04
2022-09-16T21:26:32.142Z,23.96
2022-09-16T21:28:32.237Z,23.99
2022-09-16T21:30:32.224Z,23.96
2022-09-16T21:32:32.154Z,23.96
2022-09-16T21:34:32.246Z,23.93
2022-09-16T21:36:32.224Z,23.96
2022-09-16T21:38:32.222Z,23.91
2022-09-16T21:40:34.476Z,23.89
2022-09-16T21:42:32.218Z,23.91
2022-09-16T21:44:32.349Z,23.95
2022-09-16T21:46:32.307Z,23.89
2022-09-16T21:48:32.131Z,23.89
2022-09-16T21:50:32.232Z,23.91
2022-09-16T21:52:32.215Z,23.91
2022-09-16T21:54:32.211Z,23.96
2022-09-16T21:56:32.307Z,23.89
2022-09-16T21:58:32.155Z,23.88
2022-09-16T22:00:32.271Z,23.91
2022-09-16T22:02:32.330Z,23.87
2022-09-16T22:04:32.244Z,23.96
2022-09-16T22:06:32.214Z,23.95
2022-09-16T22:08:32.258Z,23.96
2022-09-16T22:10:32.246Z,23.88
2022-09-16T22:12:32.151Z,23.88
2022-09-16T22:14:32.102Z,23.87
2022-09-16T22:16:32.270Z,23.88
2022-09-16T22:18:32.251Z,23.84
2022-09-16T22:20:32.115Z,23.88
2022-09-16T22:22:32.207Z,23.83
2022-09-16T22:24:32.274Z,23.81
2022-09-16T22:26:32.220Z,23.92
2022-09-16T22:28:32.323Z,23.85
2022-09-16T22:30:32.285Z,23.89
2022-09-16T22:32:32.276Z,23.84
2022-09-16T22:34:32.306Z,23.85
2022-09-16T22:36:32.290Z,23.82
2022-09-16T22:38:32.186Z,23.82
2022-09-16T22:40:32.276Z,23.89
2022-09-16T22:42:32.297Z,23.84
2022-09-16T22:44:32.298Z,23.88
2022-09-16T22:46:32.274Z,23.80
2022-09-16T22:48:32.134Z,23.82
2022-09-16T22:50:32.326Z,23.81
2022-09-16T22:52:32.302Z,23.82
2022-09-16T22:54:32.173Z,23.81
2022-09-16T22:56:32.398Z,23.81
2022-09-16T22:58:33.201Z,23.82
2022-09-16T23:00:38.488Z,23.84
2022-09-16T23:04:32.417Z,23.77
2022-09-16T23:06:32.328Z,23.73
2022-09-16T23:08:32.319Z,23.79
2022-09-16T23:10:32.339Z,23.85
2022-09-16T23:12:32.342Z,23.79
2022-09-16T23:14:32.330Z,23.81
2022-09-16T23:16:32.285Z,23.78
2022-09-16T23:18:32.362Z,23.77
2022-09-16T23:20:32.317Z,23.81
2022-09-16T23:22:32.348Z,23.79
2022-09-16T23:24:32.337Z,23.77
2022-09-16T23:26:32.327Z,23.76
2022-09-16T23:28:32.328Z,23.76
2022-09-16T23:30:32.378Z,23.79
2022-09-16T23:32:32.309Z,23.73
2022-09-16T23:34:32.394Z,23.69
2022-09-16T23:36:32.351Z,23.73
2022-09-16T23:38:32.351Z,23.73
2022-09-16T23:40:32.451Z,23.73
2022-09-16T23:42:32.361Z,23.72
2022-09-16T23:44:32.268Z,23.69
2022-09-16T23:46:32.368Z,23.69
2022-09-16T23:48:32.232Z,23.69
2022-09-16T23:50:32.391Z,23.70
2022-09-16T23:52:32.379Z,23.72
2022-09-16T23:54:32.291Z,23.66
2022-09-16T23:56:32.325Z,23.73
2022-09-16T23:58:32.410Z,23.70
